sensor_id;sensor_type;location;lat;lon;timestamp;temperature;humidity
8253;DHT22;61313;48.396;10.008;2022-07-23T00:00:11;25.40;99.90
8253;DHT22;61313;48.396;10.008;2022-07-23T00:02:37;25.50;99.90
8253;DHT22;61313;48.396;10.008;2022-07-23T00:05:03;25.40;99.90
8253;DHT22;61313;48.396;10.008;2022-07-23T00:07:29;25.50;99.90
8253;DHT22;61313;48.396;10.008;2022-07-23T00:09:54;25.50;99.90
8253;DHT22;61313;48.396;10.008;2022-07-23T00:12:20;25.30;99.90
8253;DHT22;61313;48.396;10.008;2022-07-23T00:14:46;25.30;99.90
8253;DHT22;61313;48.396;10.008;2022-07-23T00:17:12;25.20;99.90
8253;DHT22;61313;48.396;10.008;2022-07-23T00:19:38;25.10;99.90
8253;DHT22;61313;48.396;10.008;2022-07-23T00:22:03;25.10;99.90
8253;DHT22;61313;48.396;10.008;2022-07-23T00:24:29;25.00;99.90
8253;DHT22;61313;48.396;10.008;2022-07-23T00:26:55;24.80;99.90
8253;DHT22;61313;48.396;10.008;2022-07-23T00:29:21;24.80;99.90
8253;DHT22;61313;48.396;10.008;2022-07-23T00:31:46;24.90;99.90
8253;DHT22;61313;48.396;10.008;2022-07-23T00:34:12;24.80;99.90
8253;DHT22;61313;48.396;10.008;2022-07-23T00:36:38;24.70;99.90
8253;DHT22;61313;48.396;10.008;2022-07-23T00:39:04;24.60;99.90
8253;DHT22;61313;48.396;10.008;2022-07-23T00:41:30;24.20;99.90
8253;DHT22;61313;48.396;10.008;2022-07-23T00:43:55;24.10;99.90
8253;DHT22;61313;48.396;10.008;2022-07-23T00:46:22;24.10;99.90
8253;DHT22;61313;48.396;10.008;2022-07-23T00:48:48;24.20;99.90
8253;DHT22;61313;48.396;10.008;2022-07-23T00:51:17;24.10;99.90
8253;DHT22;61313;48.396;10.008;2022-07-23T00:53:44;24.20;99.90
8253;DHT22;61313;48.396;10.008;2022-07-23T00:56:10;24.10;99.90
8253;DHT22;61313;48.396;10.008;2022-07-23T00:58:36;24.00;99.90
8253;DHT22;61313;48.396;10.008;2022-07-23T01:01:04;23.50;99.90
8253;DHT22;61313;48.396;10.008;2022-07-23T01:03:30;23.00;1.00
8253;DHT22;61313;48.396;10.008;2022-07-23T01:05:55;22.80;1.00
8253;DHT22;61313;48.396;10.008;2022-07-23T01:08:22;22.90;1.00
8253;DHT22;61313;48.396;10.008;2022-07-23T01:10:49;23.30;1.00
8253;DHT22;61313;48.396;10.008;2022-07-23T01:13:16;23.60;1.00
8253;DHT22;61313;48.396;10.008;2022-07-23T01:15:42;23.90;1.00
8253;DHT22;61313;48.396;10.008;2022-07-23T01:18:08;24.00;1.00
8253;DHT22;61313;48.396;10.008;2022-07-23T01:20:34;24.10;1.00
8253;DHT22;61313;48.396;10.008;2022-07-23T01:23:00;24.00;1.00
8253;DHT22;61313;48.396;10.008;2022-07-23T01:25:26;24.00;1.00
8253;DHT22;61313;48.396;10.008;2022-07-23T01:27:53;24.00;1.00
8253;DHT22;61313;48.396;10.008;2022-07-23T01:30:19;24.10;1.00
8253;DHT22;61313;48.396;10.008;2022-07-23T01:32:45;24.10;1.00
8253;DHT22;61313;48.396;10.008;2022-07-23T01:35:11;24.20;1.00
8253;DHT22;61313;48.396;10.008;2022-07-23T01:37:37;24.30;99.90
8253;DHT22;61313;48.396;10.008;2022-07-23T01:40:04;24.30;99.90
8253;DHT22;61313;48.396;10.008;2022-07-23T01:42:30;24.30;99.90
8253;DHT22;61313;48.396;10.008;2022-07-23T01:44:56;24.20;99.90
8253;DHT22;61313;48.396;10.008;2022-07-23T01:47:22;23.80;99.90
8253;DHT22;61313;48.396;10.008;2022-07-23T01:49:47;23.00;1.00
8253;DHT22;61313;48.396;10.008;2022-07-23T01:52:13;22.70;1.00
8253;DHT22;61313;48.396;10.008;2022-07-23T01:54:39;22.80;1.00
8253;DHT22;61313;48.396;10.008;2022-07-23T01:57:06;22.70;1.00
8253;DHT22;61313;48.396;10.008;2022-07-23T01:59:32;22.90;1.00
8253;DHT22;61313;48.396;10.008;2022-07-23T02:01:57;23.30;1.00
8253;DHT22;61313;48.396;10.008;2022-07-23T02:04:24;23.40;1.00
8253;DHT22;61313;48.396;10.008;2022-07-23T02:06:50;23.40;1.00
8253;DHT22;61313;48.396;10.008;2022-07-23T02:09:16;23.50;1.00
8253;DHT22;61313;48.396;10.008;2022-07-23T02:11:42;23.60;1.00
8253;DHT22;61313;48.396;10.008;2022-07-23T02:14:08;23.50;1.00
8253;DHT22;61313;48.396;10.008;2022-07-23T02:16:34;23.40;1.00
8253;DHT22;61313;48.396;10.008;2022-07-23T02:19:00;23.30;1.00
8253;DHT22;61313;48.396;10.008;2022-07-23T02:21:25;23.10;1.00
8253;DHT22;61313;48.396;10.008;2022-07-23T02:23:51;22.90;1.00
8253;DHT22;61313;48.396;10.008;2022-07-23T02:26:17;22.80;1.00
8253;DHT22;61313;48.396;10.008;2022-07-23T02:28:43;22.90;1.00
8253;DHT22;61313;48.396;10.008;2022-07-23T02:31:08;22.70;99.90
8253;DHT22;61313;48.396;10.008;2022-07-23T02:33:34;22.50;99.90
8253;DHT22;61313;48.396;10.008;2022-07-23T02:36:00;22.50;1.00
8253;DHT22;61313;48.396;10.008;2022-07-23T02:38:25;22.60;1.00
8253;DHT22;61313;48.396;10.008;2022-07-23T02:40:51;22.80;99.90
8253;DHT22;61313;48.396;10.008;2022-07-23T02:43:17;23.00;99.90
8253;DHT22;61313;48.396;10.008;2022-07-23T02:45:43;23.20;21.40
8253;DHT22;61313;48.396;10.008;2022-07-23T02:48:08;23.30;1.00
8253;DHT22;61313;48.396;10.008;2022-07-23T02:50:34;23.40;1.00
8253;DHT22;61313;48.396;10.008;2022-07-23T02:53:00;23.40;1.00
8253;DHT22;61313;48.396;10.008;2022-07-23T02:55:26;23.40;1.00
8253;DHT22;61313;48.396;10.008;2022-07-23T02:57:52;23.50;1.00
8253;DHT22;61313;48.396;10.008;2022-07-23T03:00:18;23.50;1.00
8253;DHT22;61313;48.396;10.008;2022-07-23T03:02:43;23.60;1.00
8253;DHT22;61313;48.396;10.008;2022-07-23T03:05:10;23.60;1.00
8253;DHT22;61313;48.396;10.008;2022-07-23T03:07:35;23.60;1.00
8253;DHT22;61313;48.396;10.008;2022-07-23T03:10:02;23.60;1.00
8253;DHT22;61313;48.396;10.008;2022-07-23T03:12:27;23.60;1.00
8253;DHT22;61313;48.396;10.008;2022-07-23T03:14:53;23.50;1.00
8253;DHT22;61313;48.396;10.008;2022-07-23T03:17:19;23.50;1.00
8253;DHT22;61313;48.396;10.008;2022-07-23T03:19:45;23.00;1.00
8253;DHT22;61313;48.396;10.008;2022-07-23T03:22:11;22.70;1.00
8253;DHT22;61313;48.396;10.008;2022-07-23T03:24:36;22.60;99.90
8253;DHT22;61313;48.396;10.008;2022-07-23T03:27:28;22.80;99.90
8253;DHT22;61313;48.396;10.008;2022-07-23T03:29:55;23.00;1.00
8253;DHT22;61313;48.396;10.008;2022-07-23T03:32:21;23.00;1.00
8253;DHT22;61313;48.396;10.008;2022-07-23T03:34:48;23.30;1.00
8253;DHT22;61313;48.396;10.008;2022-07-23T03:37:14;23.10;1.00
8253;DHT22;61313;48.396;10.008;2022-07-23T03:39:40;23.10;1.00
8253;DHT22;61313;48.396;10.008;2022-07-23T03:42:06;23.10;1.00
8253;DHT22;61313;48.396;10.008;2022-07-23T03:44:32;23.20;1.00
8253;DHT22;61313;48.396;10.008;2022-07-23T03:46:58;23.30;1.00
8253;DHT22;61313;48.396;10.008;2022-07-23T03:49:24;23.40;1.00
8253;DHT22;61313;48.396;10.008;2022-07-23T03:51:49;23.50;1.00
8253;DHT22;61313;48.396;10.008;2022-07-23T03:54:15;23.50;1.00
8253;DHT22;61313;48.396;10.008;2022-07-23T03:56:41;23.60;1.00
8253;DHT22;61313;48.396;10.008;2022-07-23T03:59:08;23.40;1.00
8253;DHT22;61313;48.396;10.008;2022-07-23T04:01:34;23.20;1.00
8253;DHT22;61313;48.396;10.008;2022-07-23T04:04:00;23.10;1.00
8253;DHT22;61313;48.396;10.008;2022-07-23T04:06:26;23.10;1.00
8253;DHT22;61313;48.396;10.008;2022-07-23T04:08:52;23.10;99.90
8253;DHT22;61313;48.396;10.008;2022-07-23T04:11:17;23.20;99.90
8253;DHT22;61313;48.396;10.008;2022-07-23T04:13:43;23.20;1.00
8253;DHT22;61313;48.396;10.008;2022-07-23T04:16:09;23.00;99.90
8253;DHT22;61313;48.396;10.008;2022-07-23T04:18:35;22.80;1.00
8253;DHT22;61313;48.396;10.008;2022-07-23T04:21:01;23.10;1.00
8253;DHT22;61313;48.396;10.008;2022-07-23T04:23:27;23.10;1.00
8253;DHT22;61313;48.396;10.008;2022-07-23T04:25:52;23.10;1.00
8253;DHT22;61313;48.396;10.008;2022-07-23T04:28:18;23.00;99.90
8253;DHT22;61313;48.396;10.008;2022-07-23T04:30:44;23.00;1.00
8253;DHT22;61313;48.396;10.008;2022-07-23T04:33:09;22.80;1.00
8253;DHT22;61313;48.396;10.008;2022-07-23T04:35:36;22.80;1.00
8253;DHT22;61313;48.396;10.008;2022-07-23T04:38:03;22.90;1.00
8253;DHT22;61313;48.396;10.008;2022-07-23T04:40:29;23.00;1.00
8253;DHT22;61313;48.396;10.008;2022-07-23T04:42:56;22.80;1.00
8253;DHT22;61313;48.396;10.008;2022-07-23T04:45:22;22.40;1.00
8253;DHT22;61313;48.396;10.008;2022-07-23T04:47:51;22.40;1.00
8253;DHT22;61313;48.396;10.008;2022-07-23T04:50:17;22.70;1.00
8253;DHT22;61313;48.396;10.008;2022-07-23T04:52:49;23.10;1.00
8253;DHT22;61313;48.396;10.008;2022-07-23T04:55:16;23.20;1.00
8253;DHT22;61313;48.396;10.008;2022-07-23T04:57:42;23.20;1.00
8253;DHT22;61313;48.396;10.008;2022-07-23T05:00:08;23.10;1.00
8253;DHT22;61313;48.396;10.008;2022-07-23T05:02:34;23.10;1.00
8253;DHT22;61313;48.396;10.008;2022-07-23T05:05:00;23.10;1.00
8253;DHT22;61313;48.396;10.008;2022-07-23T05:07:25;23.10;1.00
8253;DHT22;61313;48.396;10.008;2022-07-23T05:09:51;23.00;1.00
8253;DHT22;61313;48.396;10.008;2022-07-23T05:12:17;22.80;1.00
8253;DHT22;61313;48.396;10.008;2022-07-23T05:14:42;22.50;51.10
8253;DHT22;61313;48.396;10.008;2022-07-23T05:17:08;22.30;99.90
8253;DHT22;61313;48.396;10.008;2022-07-23T05:19:34;22.50;99.90
8253;DHT22;61313;48.396;10.008;2022-07-23T05:22:00;22.70;99.90
8253;DHT22;61313;48.396;10.008;2022-07-23T05:24:26;23.00;1.00
8253;DHT22;61313;48.396;10.008;2022-07-23T05:26:52;23.20;1.00
8253;DHT22;61313;48.396;10.008;2022-07-23T05:29:18;23.10;1.00
8253;DHT22;61313;48.396;10.008;2022-07-23T05:31:44;22.90;1.00
8253;DHT22;61313;48.396;10.008;2022-07-23T05:34:10;22.80;1.00
8253;DHT22;61313;48.396;10.008;2022-07-23T05:36:35;23.30;1.00
8253;DHT22;61313;48.396;10.008;2022-07-23T05:39:02;23.50;1.00
8253;DHT22;61313;48.396;10.008;2022-07-23T05:41:27;23.40;1.00
8253;DHT22;61313;48.396;10.008;2022-07-23T05:43:54;23.30;1.00
8253;DHT22;61313;48.396;10.008;2022-07-23T05:46:19;23.00;1.00
8253;DHT22;61313;48.396;10.008;2022-07-23T05:48:45;22.80;1.00
8253;DHT22;61313;48.396;10.008;2022-07-23T05:51:22;22.80;22.90
8253;DHT22;61313;48.396;10.008;2022-07-23T05:53:48;22.70;99.90
8253;DHT22;61313;48.396;10.008;2022-07-23T05:56:15;22.60;1.00
8253;DHT22;61313;48.396;10.008;2022-07-23T05:58:42;22.70;99.90
8253;DHT22;61313;48.396;10.008;2022-07-23T06:01:08;22.70;99.90
8253;DHT22;61313;48.396;10.008;2022-07-23T06:03:34;22.90;99.90
8253;DHT22;61313;48.396;10.008;2022-07-23T06:05:59;23.00;99.90
8253;DHT22;61313;48.396;10.008;2022-07-23T06:08:25;22.80;99.90
8253;DHT22;61313;48.396;10.008;2022-07-23T06:10:51;23.00;53.60
8253;DHT22;61313;48.396;10.008;2022-07-23T06:13:20;23.60;1.00
8253;DHT22;61313;48.396;10.008;2022-07-23T06:15:46;23.50;1.00
8253;DHT22;61313;48.396;10.008;2022-07-23T06:18:11;23.20;1.00
8253;DHT22;61313;48.396;10.008;2022-07-23T06:20:37;23.20;1.00
8253;DHT22;61313;48.396;10.008;2022-07-23T06:23:03;23.30;1.00
8253;DHT22;61313;48.396;10.008;2022-07-23T06:25:29;23.20;1.00
8253;DHT22;61313;48.396;10.008;2022-07-23T06:27:55;23.40;1.00
8253;DHT22;61313;48.396;10.008;2022-07-23T06:30:21;23.60;1.00
8253;DHT22;61313;48.396;10.008;2022-07-23T06:32:47;23.70;1.00
8253;DHT22;61313;48.396;10.008;2022-07-23T06:35:14;23.40;1.00
8253;DHT22;61313;48.396;10.008;2022-07-23T06:37:39;23.20;1.00
8253;DHT22;61313;48.396;10.008;2022-07-23T06:40:05;23.10;1.00
8253;DHT22;61313;48.396;10.008;2022-07-23T06:42:31;23.10;1.00
8253;DHT22;61313;48.396;10.008;2022-07-23T06:44:57;23.10;1.00
8253;DHT22;61313;48.396;10.008;2022-07-23T06:47:23;23.20;1.00
8253;DHT22;61313;48.396;10.008;2022-07-23T06:49:51;23.20;1.00
8253;DHT22;61313;48.396;10.008;2022-07-23T06:52:16;23.30;1.00
8253;DHT22;61313;48.396;10.008;2022-07-23T06:54:42;23.20;1.00
8253;DHT22;61313;48.396;10.008;2022-07-23T06:57:08;23.20;1.00
8253;DHT22;61313;48.396;10.008;2022-07-23T06:59:33;23.30;1.00
8253;DHT22;61313;48.396;10.008;2022-07-23T07:02:01;23.50;1.00
8253;DHT22;61313;48.396;10.008;2022-07-23T07:04:27;23.60;1.00
8253;DHT22;61313;48.396;10.008;2022-07-23T07:06:53;23.90;1.00
8253;DHT22;61313;48.396;10.008;2022-07-23T07:09:19;23.90;1.00
8253;DHT22;61313;48.396;10.008;2022-07-23T07:11:44;24.20;1.00
8253;DHT22;61313;48.396;10.008;2022-07-23T07:14:10;24.50;99.90
8253;DHT22;61313;48.396;10.008;2022-07-23T07:16:36;25.00;99.90
8253;DHT22;61313;48.396;10.008;2022-07-23T07:19:01;25.20;99.90
8253;DHT22;61313;48.396;10.008;2022-07-23T07:21:27;25.30;99.90
8253;DHT22;61313;48.396;10.008;2022-07-23T07:23:53;25.30;99.90
8253;DHT22;61313;48.396;10.008;2022-07-23T07:26:18;25.30;99.90
8253;DHT22;61313;48.396;10.008;2022-07-23T07:28:44;25.50;99.90
8253;DHT22;61313;48.396;10.008;2022-07-23T07:31:10;25.60;99.90
8253;DHT22;61313;48.396;10.008;2022-07-23T07:33:35;25.50;99.90
8253;DHT22;61313;48.396;10.008;2022-07-23T07:36:01;26.00;99.90
8253;DHT22;61313;48.396;10.008;2022-07-23T07:38:27;26.30;99.90
8253;DHT22;61313;48.396;10.008;2022-07-23T07:40:52;26.60;99.90
8253;DHT22;61313;48.396;10.008;2022-07-23T07:43:18;26.70;99.90
8253;DHT22;61313;48.396;10.008;2022-07-23T07:45:44;26.40;99.90
8253;DHT22;61313;48.396;10.008;2022-07-23T07:48:10;26.10;99.90
8253;DHT22;61313;48.396;10.008;2022-07-23T07:50:35;26.30;99.90
8253;DHT22;61313;48.396;10.008;2022-07-23T07:53:01;26.70;99.90
8253;DHT22;61313;48.396;10.008;2022-07-23T07:55:27;27.10;99.90
8253;DHT22;61313;48.396;10.008;2022-07-23T07:57:54;27.10;99.90
8253;DHT22;61313;48.396;10.008;2022-07-23T08:00:19;27.10;99.90
8253;DHT22;61313;48.396;10.008;2022-07-23T08:02:47;27.20;99.90
8253;DHT22;61313;48.396;10.008;2022-07-23T08:05:14;27.10;99.90
8253;DHT22;61313;48.396;10.008;2022-07-23T08:07:40;27.00;99.90
8253;DHT22;61313;48.396;10.008;2022-07-23T08:10:08;27.30;99.90
8253;DHT22;61313;48.396;10.008;2022-07-23T08:15:05;27.80;99.90
8253;DHT22;61313;48.396;10.008;2022-07-23T08:17:32;28.00;99.90
8253;DHT22;61313;48.396;10.008;2022-07-23T08:19:57;27.70;99.90
8253;DHT22;61313;48.396;10.008;2022-07-23T08:22:23;27.60;99.90
8253;DHT22;61313;48.396;10.008;2022-07-23T08:24:49;27.50;99.90
8253;DHT22;61313;48.396;10.008;2022-07-23T08:27:14;27.60;99.90
8253;DHT22;61313;48.396;10.008;2022-07-23T08:29:40;27.70;99.90
8253;DHT22;61313;48.396;10.008;2022-07-23T08:32:06;27.50;99.90
8253;DHT22;61313;48.396;10.008;2022-07-23T08:34:31;27.40;99.90
8253;DHT22;61313;48.396;10.008;2022-07-23T08:36:57;27.50;99.90
8253;DHT22;61313;48.396;10.008;2022-07-23T08:39:23;27.60;99.90
8253;DHT22;61313;48.396;10.008;2022-07-23T08:41:49;27.70;99.90
8253;DHT22;61313;48.396;10.008;2022-07-23T08:44:16;27.70;99.90
8253;DHT22;61313;48.396;10.008;2022-07-23T08:46:43;27.50;99.90
8253;DHT22;61313;48.396;10.008;2022-07-23T08:49:10;27.30;99.90
8253;DHT22;61313;48.396;10.008;2022-07-23T08:51:36;27.50;99.90
8253;DHT22;61313;48.396;10.008;2022-07-23T08:54:02;27.60;99.90
8253;DHT22;61313;48.396;10.008;2022-07-23T08:56:29;27.40;99.90
8253;DHT22;61313;48.396;10.008;2022-07-23T08:58:55;27.20;99.90
8253;DHT22;61313;48.396;10.008;2022-07-23T09:01:22;27.00;99.90
8253;DHT22;61313;48.396;10.008;2022-07-23T09:03:48;26.70;99.90
8253;DHT22;61313;48.396;10.008;2022-07-23T09:06:13;26.60;99.90
8253;DHT22;61313;48.396;10.008;2022-07-23T09:08:44;26.50;99.90
8253;DHT22;61313;48.396;10.008;2022-07-23T09:11:12;26.70;99.90
8253;DHT22;61313;48.396;10.008;2022-07-23T09:18:56;26.60;99.90
8253;DHT22;61313;48.396;10.008;2022-07-23T09:21:31;26.60;99.90
8253;DHT22;61313;48.396;10.008;2022-07-23T09:24:08;26.70;99.90
8253;DHT22;61313;48.396;10.008;2022-07-23T09:26:40;27.10;99.90
8253;DHT22;61313;48.396;10.008;2022-07-23T09:29:13;27.40;99.90
8253;DHT22;61313;48.396;10.008;2022-07-23T09:32:01;27.80;99.90
8253;DHT22;61313;48.396;10.008;2022-07-23T09:34:34;27.90;99.90
8253;DHT22;61313;48.396;10.008;2022-07-23T09:37:14;27.70;99.90
8253;DHT22;61313;48.396;10.008;2022-07-23T09:39:41;27.80;99.90
8253;DHT22;61313;48.396;10.008;2022-07-23T09:42:24;27.80;99.90
8253;DHT22;61313;48.396;10.008;2022-07-23T09:44:55;27.70;99.90
8253;DHT22;61313;48.396;10.008;2022-07-23T09:47:22;27.60;99.90
8253;DHT22;61313;48.396;10.008;2022-07-23T09:50:05;27.70;99.90
8253;DHT22;61313;48.396;10.008;2022-07-23T09:52:36;27.70;99.90
8253;DHT22;61313;48.396;10.008;2022-07-23T09:55:08;27.60;99.90
8253;DHT22;61313;48.396;10.008;2022-07-23T09:57:34;27.50;99.90
8253;DHT22;61313;48.396;10.008;2022-07-23T10:00:05;27.30;99.90
8253;DHT22;61313;48.396;10.008;2022-07-23T10:02:33;27.50;99.90
8253;DHT22;61313;48.396;10.008;2022-07-23T10:05:00;27.60;99.90
8253;DHT22;61313;48.396;10.008;2022-07-23T10:07:27;27.60;99.90
8253;DHT22;61313;48.396;10.008;2022-07-23T10:09:56;27.50;99.90
8253;DHT22;61313;48.396;10.008;2022-07-23T10:12:24;27.70;99.90
8253;DHT22;61313;48.396;10.008;2022-07-23T10:15:06;27.90;99.90
8253;DHT22;61313;48.396;10.008;2022-07-23T10:17:33;28.10;99.90
8253;DHT22;61313;48.396;10.008;2022-07-23T10:19:59;28.20;99.90
8253;DHT22;61313;48.396;10.008;2022-07-23T10:22:26;28.00;99.90
8253;DHT22;61313;48.396;10.008;2022-07-23T10:25:15;28.00;99.90
8253;DHT22;61313;48.396;10.008;2022-07-23T10:27:54;27.80;99.90
8253;DHT22;61313;48.396;10.008;2022-07-23T10:30:51;27.70;99.90
8253;DHT22;61313;48.396;10.008;2022-07-23T10:36:27;27.70;99.90
8253;DHT22;61313;48.396;10.008;2022-07-23T10:39:10;27.50;99.90
8253;DHT22;61313;48.396;10.008;2022-07-23T10:41:40;27.70;99.90
8253;DHT22;61313;48.396;10.008;2022-07-23T10:44:16;28.10;99.90
8253;DHT22;61313;48.396;10.008;2022-07-23T10:47:01;28.20;99.90
8253;DHT22;61313;48.396;10.008;2022-07-23T10:49:31;28.20;99.90
8253;DHT22;61313;48.396;10.008;2022-07-23T10:52:17;28.00;99.90
8253;DHT22;61313;48.396;10.008;2022-07-23T10:57:50;28.30;99.90
8253;DHT22;61313;48.396;10.008;2022-07-23T11:00:22;28.40;99.90
8253;DHT22;61313;48.396;10.008;2022-07-23T11:02:51;28.20;99.90
8253;DHT22;61313;48.396;10.008;2022-07-23T11:05:22;28.30;99.90
8253;DHT22;61313;48.396;10.008;2022-07-23T11:16:05;28.70;99.90
8253;DHT22;61313;48.396;10.008;2022-07-23T11:18:52;28.50;99.90
8253;DHT22;61313;48.396;10.008;2022-07-23T11:24:15;28.50;99.90
8253;DHT22;61313;48.396;10.008;2022-07-23T11:26:54;28.40;99.90
8253;DHT22;61313;48.396;10.008;2022-07-23T11:34:44;29.20;99.90
8253;DHT22;61313;48.396;10.008;2022-07-23T11:39:56;29.40;99.90
8253;DHT22;61313;48.396;10.008;2022-07-23T11:42:22;29.20;99.90
8253;DHT22;61313;48.396;10.008;2022-07-23T11:44:50;29.40;99.90
8253;DHT22;61313;48.396;10.008;2022-07-23T11:47:22;29.40;99.90
8253;DHT22;61313;48.396;10.008;2022-07-23T11:49:57;29.50;99.90
8253;DHT22;61313;48.396;10.008;2022-07-23T11:52:24;29.50;99.90
8253;DHT22;61313;48.396;10.008;2022-07-23T11:54:56;29.40;99.90
8253;DHT22;61313;48.396;10.008;2022-07-23T11:57:33;28.90;99.90
8253;DHT22;61313;48.396;10.008;2022-07-23T12:02:48;28.70;99.90
8253;DHT22;61313;48.396;10.008;2022-07-23T12:05:16;28.70;99.90
8253;DHT22;61313;48.396;10.008;2022-07-23T12:07:43;28.50;99.90
8253;DHT22;61313;48.396;10.008;2022-07-23T12:10:25;28.20;99.90
8253;DHT22;61313;48.396;10.008;2022-07-23T12:13:00;27.40;1.00
8253;DHT22;61313;48.396;10.008;2022-07-23T12:15:30;26.60;1.00
8253;DHT22;61313;48.396;10.008;2022-07-23T12:17:59;26.20;1.00
8253;DHT22;61313;48.396;10.008;2022-07-23T12:20:28;26.20;1.00
8253;DHT22;61313;48.396;10.008;2022-07-23T12:23:00;26.10;1.00
8253;DHT22;61313;48.396;10.008;2022-07-23T12:25:29;26.00;99.90
8253;DHT22;61313;48.396;10.008;2022-07-23T12:30:54;25.50;99.90
8253;DHT22;61313;48.396;10.008;2022-07-23T12:33:35;25.60;99.90
8253;DHT22;61313;48.396;10.008;2022-07-23T12:36:09;25.80;1.00
8253;DHT22;61313;48.396;10.008;2022-07-23T12:38:40;26.10;1.00
8253;DHT22;61313;48.396;10.008;2022-07-23T12:41:07;26.20;99.90
8253;DHT22;61313;48.396;10.008;2022-07-23T12:43:38;26.50;99.90
8253;DHT22;61313;48.396;10.008;2022-07-23T12:46:15;26.60;99.90
8253;DHT22;61313;48.396;10.008;2022-07-23T12:53:48;26.80;99.90
8253;DHT22;61313;48.396;10.008;2022-07-23T12:56:20;26.90;99.90
8253;DHT22;61313;48.396;10.008;2022-07-23T12:58:58;26.90;99.90
8253;DHT22;61313;48.396;10.008;2022-07-23T13:01:26;27.30;99.90
8253;DHT22;61313;48.396;10.008;2022-07-23T13:04:20;27.30;99.90
8253;DHT22;61313;48.396;10.008;2022-07-23T13:06:58;27.50;99.90
8253;DHT22;61313;48.396;10.008;2022-07-23T13:09:28;27.60;99.90
8253;DHT22;61313;48.396;10.008;2022-07-23T13:11:55;27.80;99.90
8253;DHT22;61313;48.396;10.008;2022-07-23T13:14:22;27.80;99.90
8253;DHT22;61313;48.396;10.008;2022-07-23T13:16:49;27.90;99.90
8253;DHT22;61313;48.396;10.008;2022-07-23T13:19:15;27.90;99.90
8253;DHT22;61313;48.396;10.008;2022-07-23T13:21:41;27.70;99.90
8253;DHT22;61313;48.396;10.008;2022-07-23T13:24:09;27.70;99.90
8253;DHT22;61313;48.396;10.008;2022-07-23T13:26:35;27.70;99.90
8253;DHT22;61313;48.396;10.008;2022-07-23T13:29:01;27.50;99.90
8253;DHT22;61313;48.396;10.008;2022-07-23T13:31:26;27.40;99.90
8253;DHT22;61313;48.396;10.008;2022-07-23T13:33:52;27.40;99.90
8253;DHT22;61313;48.396;10.008;2022-07-23T13:36:18;27.50;99.90
8253;DHT22;61313;48.396;10.008;2022-07-23T13:38:44;27.50;99.90
8253;DHT22;61313;48.396;10.008;2022-07-23T13:41:09;27.40;99.90
8253;DHT22;61313;48.396;10.008;2022-07-23T13:43:35;27.40;99.90
8253;DHT22;61313;48.396;10.008;2022-07-23T13:46:01;27.40;99.90
8253;DHT22;61313;48.396;10.008;2022-07-23T13:48:26;27.60;99.90
8253;DHT22;61313;48.396;10.008;2022-07-23T13:50:54;27.70;99.90
8253;DHT22;61313;48.396;10.008;2022-07-23T13:53:22;27.70;99.90
8253;DHT22;61313;48.396;10.008;2022-07-23T13:55:50;27.60;99.90
8253;DHT22;61313;48.396;10.008;2022-07-23T13:58:17;27.70;99.90
8253;DHT22;61313;48.396;10.008;2022-07-23T14:00:46;27.70;99.90
8253;DHT22;61313;48.396;10.008;2022-07-23T14:03:12;27.80;99.90
8253;DHT22;61313;48.396;10.008;2022-07-23T14:05:38;27.80;99.90
8253;DHT22;61313;48.396;10.008;2022-07-23T14:08:04;27.80;99.90
8253;DHT22;61313;48.396;10.008;2022-07-23T14:10:31;27.80;99.90
8253;DHT22;61313;48.396;10.008;2022-07-23T14:12:57;27.70;99.90
8253;DHT22;61313;48.396;10.008;2022-07-23T14:15:26;27.70;99.90
8253;DHT22;61313;48.396;10.008;2022-07-23T14:17:53;27.60;99.90
8253;DHT22;61313;48.396;10.008;2022-07-23T14:20:19;27.50;99.90
8253;DHT22;61313;48.396;10.008;2022-07-23T14:22:45;27.40;99.90
8253;DHT22;61313;48.396;10.008;2022-07-23T14:25:11;27.30;99.90
8253;DHT22;61313;48.396;10.008;2022-07-23T14:27:37;27.20;99.90
8253;DHT22;61313;48.396;10.008;2022-07-23T14:30:05;27.00;99.90
8253;DHT22;61313;48.396;10.008;2022-07-23T14:32:31;26.80;99.90
8253;DHT22;61313;48.396;10.008;2022-07-23T14:34:57;26.70;99.90
8253;DHT22;61313;48.396;10.008;2022-07-23T14:37:23;26.80;99.90
8253;DHT22;61313;48.396;10.008;2022-07-23T14:39:51;27.00;99.90
8253;DHT22;61313;48.396;10.008;2022-07-23T14:42:17;27.00;99.90
8253;DHT22;61313;48.396;10.008;2022-07-23T14:44:43;27.10;99.90
8253;DHT22;61313;48.396;10.008;2022-07-23T14:47:09;27.10;99.90
8253;DHT22;61313;48.396;10.008;2022-07-23T14:49:35;27.10;99.90
8253;DHT22;61313;48.396;10.008;2022-07-23T14:52:02;27.10;99.90
8253;DHT22;61313;48.396;10.008;2022-07-23T14:54:28;27.20;99.90
8253;DHT22;61313;48.396;10.008;2022-07-23T14:56:55;27.00;99.90
8253;DHT22;61313;48.396;10.008;2022-07-23T14:59:22;27.00;99.90
8253;DHT22;61313;48.396;10.008;2022-07-23T15:01:48;27.00;99.90
8253;DHT22;61313;48.396;10.008;2022-07-23T15:04:14;26.70;99.90
8253;DHT22;61313;48.396;10.008;2022-07-23T15:06:40;26.70;99.90
8253;DHT22;61313;48.396;10.008;2022-07-23T15:09:06;26.80;99.90
8253;DHT22;61313;48.396;10.008;2022-07-23T15:11:32;27.00;99.90
8253;DHT22;61313;48.396;10.008;2022-07-23T15:14:06;26.80;99.90
8253;DHT22;61313;48.396;10.008;2022-07-23T15:16:32;26.70;99.90
8253;DHT22;61313;48.396;10.008;2022-07-23T15:18:58;26.70;99.90
8253;DHT22;61313;48.396;10.008;2022-07-23T15:21:24;26.80;99.90
8253;DHT22;61313;48.396;10.008;2022-07-23T15:23:50;27.00;99.90
8253;DHT22;61313;48.396;10.008;2022-07-23T15:26:16;27.30;99.90
8253;DHT22;61313;48.396;10.008;2022-07-23T15:28:43;27.40;99.90
8253;DHT22;61313;48.396;10.008;2022-07-23T15:31:09;27.50;99.90
8253;DHT22;61313;48.396;10.008;2022-07-23T15:33:35;27.60;99.90
8253;DHT22;61313;48.396;10.008;2022-07-23T15:36:02;27.70;99.90
8253;DHT22;61313;48.396;10.008;2022-07-23T15:38:28;27.70;99.90
8253;DHT22;61313;48.396;10.008;2022-07-23T15:40:54;27.70;99.90
8253;DHT22;61313;48.396;10.008;2022-07-23T15:43:24;27.50;99.90
8253;DHT22;61313;48.396;10.008;2022-07-23T15:45:50;27.40;99.90
8253;DHT22;61313;48.396;10.008;2022-07-23T15:48:18;27.40;99.90
8253;DHT22;61313;48.396;10.008;2022-07-23T15:50:43;27.30;99.90
8253;DHT22;61313;48.396;10.008;2022-07-23T15:53:09;27.30;99.90
8253;DHT22;61313;48.396;10.008;2022-07-23T15:55:35;27.30;99.90
8253;DHT22;61313;48.396;10.008;2022-07-23T15:58:02;27.20;99.90
8253;DHT22;61313;48.396;10.008;2022-07-23T16:00:28;27.30;99.90
8253;DHT22;61313;48.396;10.008;2022-07-23T16:02:54;27.40;99.90
8253;DHT22;61313;48.396;10.008;2022-07-23T16:05:19;27.20;99.90
8253;DHT22;61313;48.396;10.008;2022-07-23T16:07:45;27.10;99.90
8253;DHT22;61313;48.396;10.008;2022-07-23T16:10:11;27.20;99.90
8253;DHT22;61313;48.396;10.008;2022-07-23T16:12:37;27.40;99.90
8253;DHT22;61313;48.396;10.008;2022-07-23T16:15:04;27.40;99.90
8253;DHT22;61313;48.396;10.008;2022-07-23T16:17:30;27.40;99.90
8253;DHT22;61313;48.396;10.008;2022-07-23T16:19:55;27.50;99.90